sensor_id;sensor_type;location;lat;lon;timestamp;P1;P2;P0
58740;PMS7003;44512;53.046;18.604;2024-03-23T01:00:41;7;6;4
58740;PMS7003;44512;53.046;18.604;2024-03-23T01:11:09;7;4;4
58740;PMS7003;44512;53.046;18.604;2024-03-23T01:21:37;6;5;3
58740;PMS7003;44512;53.046;18.604;2024-03-23T01:32:06;5;5;4
58740;PMS7003;44512;53.046;18.604;2024-03-23T01:42:34;5;4;2
58740;PMS7003;44512;53.046;18.604;2024-03-23T01:53:03;9;3;2
58740;PMS7003;44512;53.046;18.604;2024-03-23T02:03:31;6;2;2
58740;PMS7003;44512;53.046;18.604;2024-03-23T02:13:59;4;2;1
58740;PMS7003;44512;53.046;18.604;2024-03-23T02:24:29;6;2;1
58740;PMS7003;44512;53.046;18.604;2024-03-23T02:34:56;2;2;1
58740;PMS7003;44512;53.046;18.604;2024-03-23T02:45:24;4;3;2
58740;PMS7003;44512;53.046;18.604;2024-03-23T02:55:53;5;4;2
58740;PMS7003;44512;53.046;18.604;2024-03-23T03:06:25;5;2;1
58740;PMS7003;44512;53.046;18.604;2024-03-23T03:16:50;4;2;1
58740;PMS7003;44512;53.046;18.604;2024-03-23T03:27:18;2;2;1
58740;PMS7003;44512;53.046;18.604;2024-03-23T03:37:46;4;2;2
58740;PMS7003;44512;53.046;18.604;2024-03-23T03:48:15;5;3;3
58740;PMS7003;44512;53.046;18.604;2024-03-23T03:58:43;8;6;4
58740;PMS7003;44512;53.046;18.604;2024-03-23T04:09:11;8;6;5
58740;PMS7003;44512;53.046;18.604;2024-03-23T04:19:40;7;5;4
58740;PMS7003;44512;53.046;18.604;2024-03-23T04:30:09;12;10;7
58740;PMS7003;44512;53.046;18.604;2024-03-23T04:40:37;13;11;8
58740;PMS7003;44512;53.046;18.604;2024-03-23T04:51:05;16;14;10
58740;PMS7003;44512;53.046;18.604;2024-03-23T05:01:33;19;14;10
58740;PMS7003;44512;53.046;18.604;2024-03-23T05:12:02;13;11;8
58740;PMS7003;44512;53.046;18.604;2024-03-23T05:22:30;17;14;10
58740;PMS7003;44512;53.046;18.604;2024-03-23T05:32:59;15;12;8
58740;PMS7003;44512;53.046;18.604;2024-03-23T05:43:27;10;7;5
58740;PMS7003;44512;53.046;18.604;2024-03-23T05:53:55;9;6;5
58740;PMS7003;44512;53.046;18.604;2024-03-23T06:04:24;8;5;4
58740;PMS7003;44512;53.046;18.604;2024-03-23T06:14:52;8;4;3
58740;PMS7003;44512;53.046;18.604;2024-03-23T06:25:21;7;4;3
58740;PMS7003;44512;53.046;18.604;2024-03-23T06:35:52;5;5;4
58740;PMS7003;44512;53.046;18.604;2024-03-23T06:46:17;3;2;2
58740;PMS7003;44512;53.046;18.604;2024-03-23T06:56:46;6;3;2
58740;PMS7003;44512;53.046;18.604;2024-03-23T07:07:15;5;4;3
58740;PMS7003;44512;53.046;18.604;2024-03-23T07:17:46;7;4;3
58740;PMS7003;44512;53.046;18.604;2024-03-23T07:28:11;6;4;3
58740;PMS7003;44512;53.046;18.604;2024-03-23T07:38:43;4;3;2
58740;PMS7003;44512;53.046;18.604;2024-03-23T07:49:08;4;3;2
58740;PMS7003;44512;53.046;18.604;2024-03-23T07:59:36;7;5;3
58740;PMS7003;44512;53.046;18.604;2024-03-23T08:10:05;6;4;3
58740;PMS7003;44512;53.046;18.604;2024-03-23T08:20:33;4;2;1
58740;PMS7003;44512;53.046;18.604;2024-03-23T08:31:02;6;4;2
58740;PMS7003;44512;53.046;18.604;2024-03-23T08:41:30;4;3;2
58740;PMS7003;44512;53.046;18.604;2024-03-23T08:51:58;5;4;2
58740;PMS7003;44512;53.046;18.604;2024-03-23T09:02:26;4;4;2
58740;PMS7003;44512;53.046;18.604;2024-03-23T09:12:55;4;3;2
58740;PMS7003;44512;53.046;18.604;2024-03-23T09:23:23;4;4;3
58740;PMS7003;44512;53.046;18.604;2024-03-23T09:33:51;3;3;2
58740;PMS7003;44512;53.046;18.604;2024-03-23T09:44:20;3;2;1
58740;PMS7003;44512;53.046;18.604;2024-03-23T09:54:48;3;2;2
58740;PMS7003;44512;53.046;18.604;2024-03-23T10:15:45;5;1;1
58740;PMS7003;44512;53.046;18.604;2024-03-23T10:36:41;2;1;1
58740;PMS7003;44512;53.046;18.604;2024-03-23T10:47:10;11;5;3
58740;PMS7003;44512;53.046;18.604;2024-03-23T10:57:43;7;6;5
58740;PMS7003;44512;53.046;18.604;2024-03-23T11:13:21;5;2;2
58740;PMS7003;44512;53.046;18.604;2024-03-23T11:23:46;5;4;3
58740;PMS7003;44512;53.046;18.604;2024-03-23T11:34:18;3;2;1
58740;PMS7003;44512;53.046;18.604;2024-03-23T11:44:43;4;3;2
58740;PMS7003;44512;53.046;18.604;2024-03-23T11:55:11;4;2;1
58740;PMS7003;44512;53.046;18.604;2024-03-23T12:05:40;2;1;1
58740;PMS7003;44512;53.046;18.604;2024-03-23T12:16:17;5;3;2
58740;PMS7003;44512;53.046;18.604;2024-03-23T12:26:36;3;1;1
58740;PMS7003;44512;53.046;18.604;2024-03-23T12:37:05;4;3;2
58740;PMS7003;44512;53.046;18.604;2024-03-23T12:47:33;4;3;2
58740;PMS7003;44512;53.046;18.604;2024-03-23T12:58:01;4;3;2
58740;PMS7003;44512;53.046;18.604;2024-03-23T13:08:30;6;4;3
58740;PMS7003;44512;53.046;18.604;2024-03-23T13:18:58;6;3;2
58740;PMS7003;44512;53.046;18.604;2024-03-23T13:29:26;6;4;3
58740;PMS7003;44512;53.046;18.604;2024-03-23T13:39:55;4;3;3
58740;PMS7003;44512;53.046;18.604;2024-03-23T13:50:23;6;5;4
58740;PMS7003;44512;53.046;18.604;2024-03-23T14:00:52;5;4;3
58740;PMS7003;44512;53.046;18.604;2024-03-23T14:11:20;4;3;2
58740;PMS7003;44512;53.046;18.604;2024-03-23T14:21:49;6;5;4
58740;PMS7003;44512;53.046;18.604;2024-03-23T14:32:17;4;4;3
58740;PMS7003;44512;53.046;18.604;2024-03-23T14:42:45;9;9;6
58740;PMS7003;44512;53.046;18.604;2024-03-23T14:53:13;9;7;5
58740;PMS7003;44512;53.046;18.604;2024-03-23T15:03:42;4;4;2
58740;PMS7003;44512;53.046;18.604;2024-03-23T15:14:10;6;5;4
58740;PMS7003;44512;53.046;18.604;2024-03-23T15:24:39;1;1;1
58740;PMS7003;44512;53.046;18.604;2024-03-23T15:35:07;1;1;1
58740;PMS7003;44512;53.046;18.604;2024-03-23T15:45:35;0;0;0
58740;PMS7003;44512;53.046;18.604;2024-03-23T15:56:04;3;1;1
58740;PMS7003;44512;53.046;18.604;2024-03-23T16:06:32;5;4;3
58740;PMS7003;44512;53.046;18.604;2024-03-23T16:17:01;4;3;2
58740;PMS7003;44512;53.046;18.604;2024-03-23T16:27:29;3;3;2
58740;PMS7003;44512;53.046;18.604;2024-03-23T16:37:57;1;1;1
58740;PMS7003;44512;53.046;18.604;2024-03-23T16:48:26;1;1;1
58740;PMS7003;44512;53.046;18.604;2024-03-23T16:58:54;3;1;1
58740;PMS7003;44512;53.046;18.604;2024-03-23T17:09:23;2;2;1
58740;PMS7003;44512;53.046;18.604;2024-03-23T17:19:58;2;1;1
58740;PMS7003;44512;53.046;18.604;2024-03-23T17:30:20;4;3;1
58740;PMS7003;44512;53.046;18.604;2024-03-23T17:40:48;4;3;2
58740;PMS7003;44512;53.046;18.604;2024-03-23T17:51:16;4;2;1
58740;PMS7003;44512;53.046;18.604;2024-03-23T18:01:45;12;5;3
58740;PMS7003;44512;53.046;18.604;2024-03-23T18:12:13;19;14;10
58740;PMS7003;44512;53.046;18.604;2024-03-23T18:22:41;20;17;12
58740;PMS7003;44512;53.046;18.604;2024-03-23T18:33:10;15;13;8
58740;PMS7003;44512;53.046;18.604;2024-03-23T18:43:38;16;12;9
58740;PMS7003;44512;53.046;18.604;2024-03-23T18:54:07;14;12;8
58740;PMS7003;44512;53.046;18.604;2024-03-23T19:04:35;27;20;14
58740;PMS7003;44512;53.046;18.604;2024-03-23T19:15:06;25;18;15
58740;PMS7003;44512;53.046;18.604;2024-03-23T19:25:32;13;10;7
58740;PMS7003;44512;53.046;18.604;2024-03-23T19:36:00;12;9;7
58740;PMS7003;44512;53.046;18.604;2024-03-23T19:46:29;15;15;10
58740;PMS7003;44512;53.046;18.604;2024-03-23T19:56:57;15;12;8
58740;PMS7003;44512;53.046;18.604;2024-03-23T20:07:26;15;12;7
58740;PMS7003;44512;53.046;18.604;2024-03-23T20:17:54;19;16;11
58740;PMS7003;44512;53.046;18.604;2024-03-23T20:28:23;11;7;6
58740;PMS7003;44512;53.046;18.604;2024-03-23T20:38:51;10;7;5
58740;PMS7003;44512;53.046;18.604;2024-03-23T20:49:19;15;10;7
58740;PMS7003;44512;53.046;18.604;2024-03-23T20:59:48;28;20;14
58740;PMS7003;44512;53.046;18.604;2024-03-23T21:10:16;25;21;15
58740;PMS7003;44512;53.046;18.604;2024-03-23T21:20:45;24;20;14
58740;PMS7003;44512;53.046;18.604;2024-03-23T21:31:13;22;16;12
58740;PMS7003;44512;53.046;18.604;2024-03-23T21:41:44;14;13;9
58740;PMS7003;44512;53.046;18.604;2024-03-23T21:52:10;22;16;13
58740;PMS7003;44512;53.046;18.604;2024-03-23T22:02:38;11;9;7
58740;PMS7003;44512;53.046;18.604;2024-03-23T22:13:07;10;9;7
58740;PMS7003;44512;53.046;18.604;2024-03-23T22:23:35;11;9;6
58740;PMS7003;44512;53.046;18.604;2024-03-23T22:34:03;11;6;5
58740;PMS7003;44512;53.046;18.604;2024-03-23T22:44:32;10;5;4
58740;PMS7003;44512;53.046;18.604;2024-03-23T22:55:00;14;13;9
58740;PMS7003;44512;53.046;18.604;2024-03-23T23:05:29;20;13;8
58740;PMS7003;44512;53.046;18.604;2024-03-23T23:15:57;12;9;7
58740;PMS7003;44512;53.046;18.604;2024-03-23T23:26:26;8;8;6
58740;PMS7003;44512;53.046;18.604;2024-03-23T23:36:54;8;8;6
58740;PMS7003;44512;53.046;18.604;2024-03-23T23:47:22;11;8;6
58740;PMS7003;44512;53.046;18.604;2024-03-23T23:57:51;10;7;5
